Eifukumaru No.21 — JD2341 — position and weather

sailwx.info

Track history (hours):
 
Tides and Currents Weather Stations Pressure Air Temp Water Temp Dewpoint Dewpoint Depression Visibility Wind Speed Wind Dir Waves Ship Positions

Eifukumaru No.21

Last reported at 2017-Oct-16 12:15 UTC. Time now 2017-Oct-17 04:02 UTC.
Position N 34°49' E 139°10'.

Length 75 m; draft 4.1 m.

Type: Cargo ship. MMSI: 431200707.

Date/timePositionNaut miles runAvg speedWind from/ knotsBaromVisibWave heightAir tempDewpointWater temp
2017-Oct-16 12:15N 34°49' E 139°10'313.0
2017-Oct-16 11:59N 34°52' E 139°12'2012.2
2017-Oct-16 10:18N 35°03' E 139°33'413.7
2017-Oct-16 10:00N 35°05' E 139°37'714.6
2017-Oct-16 09:30N 35°09' E 139°44'713.4
2017-Oct-16 09:00N 35°16' E 139°46'713.5
2017-Oct-16 08:30N 35°22' E 139°42'713.5
2017-Oct-16 08:00N 35°29' E 139°42'2 0.2
2017-Oct-15 22:47N 35°30' E 139°43'1 2.4
2017-Oct-15 22:30N 35°29' E 139°43'3 5.7
2017-Oct-15 22:00N 35°27' E 139°42'0 0.0
2017-Oct-15 21:30N 35°27' E 139°42'0 0.0
2017-Oct-15 21:00N 35°27' E 139°42'0 0.0
2017-Oct-15 20:30N 35°27' E 139°42'0 0.0
2017-Oct-15 20:00N 35°27' E 139°42'0 0.1
2017-Oct-15 19:30N 35°27' E 139°42'0 0.0
2017-Oct-15 19:00N 35°27' E 139°42'0 0.1
2017-Oct-15 18:30N 35°27' E 139°42'0 0.0
2017-Oct-15 18:00N 35°27' E 139°42'0 0.0
2017-Oct-15 17:30N 35°27' E 139°42'0 0.0
2017-Oct-15 17:00N 35°27' E 139°42'0 0.0
2017-Oct-15 16:30N 35°27' E 139°42'0 0.0
2017-Oct-15 16:00N 35°27' E 139°42'0 0.0
2017-Oct-15 15:30N 35°27' E 139°42'0 0.0
2017-Oct-15 15:00N 35°27' E 139°42'0 0.0
2017-Oct-15 14:00N 35°27' E 139°42'0 0.0
2017-Oct-15 13:30N 35°27' E 139°42'0 0.0
2017-Oct-15 13:00N 35°27' E 139°42'0 0.0
2017-Oct-15 12:30N 35°27' E 139°42'0 0.0
2017-Oct-15 12:00N 35°27' E 139°42'0 0.0
2017-Oct-15 11:30N 35°27' E 139°42'0 0.1
2017-Oct-15 11:00N 35°27' E 139°42'0 0.0
2017-Oct-15 10:30N 35°27' E 139°42'0 0.0
2017-Oct-15 10:00N 35°27' E 139°42'0 0.0
2017-Oct-15 09:30N 35°27' E 139°42'0 0.1
2017-Oct-15 09:00N 35°27' E 139°42'3 6.5
2017-Oct-15 08:30N 35°23' E 139°43'611.9
2017-Oct-15 08:00N 35°18' E 139°45'611.5
2017-Oct-15 07:30N 35°12' E 139°47'612.3
2017-Oct-15 07:00N 35°06' E 139°44'612.8
2017-Oct-15 06:30N 35°02' E 139°39'613.0
2017-Oct-15 06:00N 34°58' E 139°32'  
2017-Oct-12 14:15N 34°49' E 139°09'2311.9
2017-Oct-12 12:21N 35°03' E 139°31'412.4
2017-Oct-12 12:01N 35°05' E 139°36'612.3
2017-Oct-12 11:30N 35°08' E 139°42'612.4
2017-Oct-12 11:00N 35°13' E 139°46'612.4
2017-Oct-12 10:30N 35°19' E 139°43'612.8
2017-Oct-12 10:00N 35°25' E 139°42'5 9.5
2017-Oct-12 09:30N 35°30' E 139°43'1 0.2
2017-Oct-12 00:13N 35°29' E 139°42'312.8
2017-Oct-12 00:00N 35°26' E 139°44'611.2
2017-Oct-11 23:30N 35°21' E 139°45'612.1
2017-Oct-11 23:00N 35°15' E 139°47'613.1
2017-Oct-11 22:30N 35°09' E 139°46'713.9
2017-Oct-11 22:00N 35°03' E 139°41'714.3
2017-Oct-11 21:30N 34°58' E 139°35'22 0.6
2017-Oct-10 12:00N 34°50' E 139°10'813.7
2017-Oct-10 11:26N 34°56' E 139°17'613.2
2017-Oct-10 10:57N 34°59' E 139°24'613.1
2017-Oct-10 10:31N 35°02' E 139°30'612.9
2017-Oct-10 10:00N 35°05' E 139°37'713.4
2017-Oct-10 09:30N 35°09' E 139°43'613.0
2017-Oct-10 09:00N 35°15' E 139°46'612.4
2017-Oct-10 08:30N 35°20' E 139°42'711.8
2017-Oct-10 07:53N 35°28' E 139°42'3 6.4
2017-Oct-10 07:29N 35°30' E 139°43'0 0.0
2017-Oct-09 22:44N 35°30' E 139°43'1 3.2
2017-Oct-09 22:30N 35°29' E 139°43'3 5.1
2017-Oct-09 22:00N 35°27' E 139°43'0 0.1
2017-Oct-09 21:28N 35°27' E 139°43'0 0.1
2017-Oct-09 20:58N 35°27' E 139°43'0 0.0
2017-Oct-09 10:58N 35°27' E 139°43'0 0.0
2017-Oct-09 10:28N 35°27' E 139°43'0 0.0
2017-Oct-09 08:58N 35°27' E 139°43'4 9.4
2017-Oct-09 08:30N 35°22' E 139°43'612.7
2017-Oct-09 08:00N 35°16' E 139°46'612.9
2017-Oct-09 07:30N 35°10' E 139°46'612.8
2017-Oct-09 07:01N 35°05' E 139°41'612.7
2017-Oct-09 06:31N 35°01' E 139°36'713.4
2017-Oct-09 05:59N 34°56' E 139°29'16 0.4
2017-Oct-07 14:05N 34°50' E 139°11'2012.7
2017-Oct-07 12:32N 35°01' E 139°31'113.1
2017-Oct-07 12:30N 35°02' E 139°31'612.5
2017-Oct-07 12:00N 35°05' E 139°37'612.9
2017-Oct-07 11:30N 35°09' E 139°43'713.5
2017-Oct-07 11:00N 35°15' E 139°46'713.1
2017-Oct-07 10:30N 35°21' E 139°42'713.7
2017-Oct-07 10:00N 35°28' E 139°42'2 4.5
2017-Oct-07 09:30N 35°30' E 139°43'0 0.0
2017-Oct-07 02:24N 35°30' E 139°43'3 6.9
2017-Oct-07 02:00N 35°27' E 139°43'4 8.7
2017-Oct-07 01:30N 35°24' E 139°46'611.2
2017-Oct-07 01:00N 35°18' E 139°44'510.7
2017-Oct-07 00:30N 35°14' E 139°47'611.4
2017-Oct-07 00:00N 35°08' E 139°45'612.5
2017-Oct-06 23:30N 35°04' E 139°39'612.4
2017-Oct-06 23:00N 35°01' E 139°33'  
Track history (hours):
 
Tides and Currents Weather Stations Pressure Air Temp Water Temp Dewpoint Dewpoint Depression Visibility Wind Speed Wind Dir Waves Ship Positions

Eifukumaru No.21

Last reported at 2017-Oct-16 12:15 UTC. Time now 2017-Oct-17 04:02 UTC.
Position N 34°49' E 139°10'.

Length 75 m; draft 4.1 m.

Type: Cargo ship. MMSI: 431200707.

Date/timePositionNaut miles runAvg speedWind from/ knotsBaromVisibWave heightAir tempDewpointWater temp
2017-Oct-16 12:15N 34°49' E 139°10'313.0
2017-Oct-16 11:59N 34°52' E 139°12'2012.2
2017-Oct-16 10:18N 35°03' E 139°33'413.7
2017-Oct-16 10:00N 35°05' E 139°37'714.6
2017-Oct-16 09:30N 35°09' E 139°44'713.4
2017-Oct-16 09:00N 35°16' E 139°46'713.5
2017-Oct-16 08:30N 35°22' E 139°42'713.5
2017-Oct-16 08:00N 35°29' E 139°42'2 0.2
2017-Oct-15 22:47N 35°30' E 139°43'1 2.4
2017-Oct-15 22:30N 35°29' E 139°43'3 5.7
2017-Oct-15 22:00N 35°27' E 139°42'0 0.0
2017-Oct-15 21:30N 35°27' E 139°42'0 0.0
2017-Oct-15 21:00N 35°27' E 139°42'0 0.0
2017-Oct-15 20:30N 35°27' E 139°42'0 0.0
2017-Oct-15 20:00N 35°27' E 139°42'0 0.1
2017-Oct-15 19:30N 35°27' E 139°42'0 0.0
2017-Oct-15 19:00N 35°27' E 139°42'0 0.1
2017-Oct-15 18:30N 35°27' E 139°42'0 0.0
2017-Oct-15 18:00N 35°27' E 139°42'0 0.0
2017-Oct-15 17:30N 35°27' E 139°42'0 0.0
2017-Oct-15 17:00N 35°27' E 139°42'0 0.0
2017-Oct-15 16:30N 35°27' E 139°42'0 0.0
2017-Oct-15 16:00N 35°27' E 139°42'0 0.0
2017-Oct-15 15:30N 35°27' E 139°42'0 0.0
2017-Oct-15 15:00N 35°27' E 139°42'0 0.0
2017-Oct-15 14:00N 35°27' E 139°42'0 0.0
2017-Oct-15 13:30N 35°27' E 139°42'0 0.0
2017-Oct-15 13:00N 35°27' E 139°42'0 0.0
2017-Oct-15 12:30N 35°27' E 139°42'0 0.0
2017-Oct-15 12:00N 35°27' E 139°42'0 0.0
2017-Oct-15 11:30N 35°27' E 139°42'0 0.1
2017-Oct-15 11:00N 35°27' E 139°42'0 0.0
2017-Oct-15 10:30N 35°27' E 139°42'0 0.0
2017-Oct-15 10:00N 35°27' E 139°42'0 0.0
2017-Oct-15 09:30N 35°27' E 139°42'0 0.1
2017-Oct-15 09:00N 35°27' E 139°42'3 6.5
2017-Oct-15 08:30N 35°23' E 139°43'611.9
2017-Oct-15 08:00N 35°18' E 139°45'611.5
2017-Oct-15 07:30N 35°12' E 139°47'612.3
2017-Oct-15 07:00N 35°06' E 139°44'612.8
2017-Oct-15 06:30N 35°02' E 139°39'613.0
2017-Oct-15 06:00N 34°58' E 139°32'  
2017-Oct-12 14:15N 34°49' E 139°09'2311.9
2017-Oct-12 12:21N 35°03' E 139°31'412.4
2017-Oct-12 12:01N 35°05' E 139°36'612.3
2017-Oct-12 11:30N 35°08' E 139°42'612.4
2017-Oct-12 11:00N 35°13' E 139°46'612.4
2017-Oct-12 10:30N 35°19' E 139°43'612.8
2017-Oct-12 10:00N 35°25' E 139°42'5 9.5
2017-Oct-12 09:30N 35°30' E 139°43'1 0.2
2017-Oct-12 00:13N 35°29' E 139°42'312.8
2017-Oct-12 00:00N 35°26' E 139°44'611.2
2017-Oct-11 23:30N 35°21' E 139°45'612.1
2017-Oct-11 23:00N 35°15' E 139°47'613.1
2017-Oct-11 22:30N 35°09' E 139°46'713.9
2017-Oct-11 22:00N 35°03' E 139°41'714.3
2017-Oct-11 21:30N 34°58' E 139°35'22 0.6
2017-Oct-10 12:00N 34°50' E 139°10'813.7
2017-Oct-10 11:26N 34°56' E 139°17'613.2
2017-Oct-10 10:57N 34°59' E 139°24'613.1
2017-Oct-10 10:31N 35°02' E 139°30'612.9
2017-Oct-10 10:00N 35°05' E 139°37'713.4
2017-Oct-10 09:30N 35°09' E 139°43'613.0
2017-Oct-10 09:00N 35°15' E 139°46'612.4
2017-Oct-10 08:30N 35°20' E 139°42'711.8
2017-Oct-10 07:53N 35°28' E 139°42'3 6.4
2017-Oct-10 07:29N 35°30' E 139°43'0 0.0
2017-Oct-09 22:44N 35°30' E 139°43'1 3.2
2017-Oct-09 22:30N 35°29' E 139°43'3 5.1
2017-Oct-09 22:00N 35°27' E 139°43'0 0.1
2017-Oct-09 21:28N 35°27' E 139°43'0 0.1
2017-Oct-09 20:58N 35°27' E 139°43'0 0.0
2017-Oct-09 10:58N 35°27' E 139°43'0 0.0
2017-Oct-09 10:28N 35°27' E 139°43'0 0.0
2017-Oct-09 08:58N 35°27' E 139°43'4 9.4
2017-Oct-09 08:30N 35°22' E 139°43'612.7
2017-Oct-09 08:00N 35°16' E 139°46'612.9
2017-Oct-09 07:30N 35°10' E 139°46'612.8
2017-Oct-09 07:01N 35°05' E 139°41'612.7
2017-Oct-09 06:31N 35°01' E 139°36'713.4
2017-Oct-09 05:59N 34°56' E 139°29'16 0.4
2017-Oct-07 14:05N 34°50' E 139°11'2012.7
2017-Oct-07 12:32N 35°01' E 139°31'113.1
2017-Oct-07 12:30N 35°02' E 139°31'612.5
2017-Oct-07 12:00N 35°05' E 139°37'612.9
2017-Oct-07 11:30N 35°09' E 139°43'713.5
2017-Oct-07 11:00N 35°15' E 139°46'713.1
2017-Oct-07 10:30N 35°21' E 139°42'713.7
2017-Oct-07 10:00N 35°28' E 139°42'2 4.5
2017-Oct-07 09:30N 35°30' E 139°43'0 0.0
2017-Oct-07 02:24N 35°30' E 139°43'3 6.9
2017-Oct-07 02:00N 35°27' E 139°43'4 8.7
2017-Oct-07 01:30N 35°24' E 139°46'611.2
2017-Oct-07 01:00N 35°18' E 139°44'510.7
2017-Oct-07 00:30N 35°14' E 139°47'611.4
2017-Oct-07 00:00N 35°08' E 139°45'612.5
2017-Oct-06 23:30N 35°04' E 139°39'612.4
2017-Oct-06 23:00N 35°01' E 139°33'  

Dump ship's entire track history